Castle Hot Springs, Arizona
Current Conditions -  °F | °C
As of 8:53 AM on Monday 24 Nov 2014 (Local Time) from KDVT Reporting Station
Clear Clear  
Wind Chill: 58°   Ceiling: Unl
Heat Index: 58°   Visibility: 10mi
Dew Point:   Wind: 6mph
Humidity: 10%   Direction: 360°N
Pressure: 30.21"   Gusts: NA
Location:  33.98°N, 112.36°W
Report Text: KDVT 241553Z 36005KT 10SM CLR 14/M17 A3021 RMK AO2 SLP218 T01441172
Loading
Personal Weather Stations






























Interactive Weather Map New forecast layout! Learn more

10-Day Weather Forecast

Advertisements
Track Severe Weather on mobile